Ryan Park, Wyoming
Current Conditions -  °F | °C
As of 11:15 PM on Tuesday 21 Oct 2014 (Local Time) from KSAA Reporting Station
Overcast Overcast  
Wind Chill: 39°   Ceiling: 6000
Heat Index: 45°   Visibility: 10mi
Dew Point: 37°   Wind: 12mph
Humidity: 76%   Direction: 210°SSW
Pressure: 30.12"   Gusts: 16mph
Location:  41.4496°N, 106.623°W
Report Text: KSAA 220515Z AUTO 21010G14KT 10SM BKN060 BKN070 OVC080 07/03 A3012 RMK AO2 LTG DSNT SE
Loading
Personal Weather Stations






























Interactive Weather Map
Tropical Storm Tracking
New forecast layout! Learn more

10-Day Weather Forecast

Advertisements
Track Severe Weather on mobile